sensor_id;sensor_type;location;lat;lon;timestamp;P1;durP1;ratioP1;P2;durP2;ratioP2
51124;SDS011;37163;55.556;39.108;2023-08-31T00:00:34;0.03;;;0.03;;
51124;SDS011;37163;55.556;39.108;2023-08-31T00:03:03;0.10;;;0.10;;
51124;SDS011;37163;55.556;39.108;2023-08-31T00:05:29;0.00;;;0.00;;
51124;SDS011;37163;55.556;39.108;2023-08-31T00:07:56;0.00;;;0.00;;
51124;SDS011;37163;55.556;39.108;2023-08-31T00:10:22;0.10;;;0.10;;
51124;SDS011;37163;55.556;39.108;2023-08-31T00:12:49;0.00;;;0.00;;
51124;SDS011;37163;55.556;39.108;2023-08-31T00:15:15;0.13;;;0.10;;
51124;SDS011;37163;55.556;39.108;2023-08-31T00:17:42;0.03;;;0.03;;
51124;SDS011;37163;55.556;39.108;2023-08-31T00:20:08;0.00;;;0.00;;
51124;SDS011;37163;55.556;39.108;2023-08-31T00:22:38;0.00;;;0.00;;
51124;SDS011;37163;55.556;39.108;2023-08-31T00:25:05;0.03;;;0.03;;
51124;SDS011;37163;55.556;39.108;2023-08-31T00:27:34;0.00;;;0.00;;
51124;SDS011;37163;55.556;39.108;2023-08-31T00:30:05;0.00;;;0.00;;
51124;SDS011;37163;55.556;39.108;2023-08-31T00:32:37;0.00;;;0.00;;
51124;SDS011;37163;55.556;39.108;2023-08-31T00:35:05;0.03;;;0.03;;
51124;SDS011;37163;55.556;39.108;2023-08-31T00:37:31;0.10;;;0.10;;
51124;SDS011;37163;55.556;39.108;2023-08-31T00:39:59;0.20;;;0.10;;
51124;SDS011;37163;55.556;39.108;2023-08-31T00:42:25;0.40;;;0.22;;
51124;SDS011;37163;55.556;39.108;2023-08-31T00:44:52;0.10;;;0.10;;
51124;SDS011;37163;55.556;39.108;2023-08-31T00:47:19;0.35;;;0.20;;
51124;SDS011;37163;55.556;39.108;2023-08-31T00:49:46;0.08;;;0.08;;
51124;SDS011;37163;55.556;39.108;2023-08-31T00:52:13;0.00;;;0.00;;
51124;SDS011;37163;55.556;39.108;2023-08-31T00:54:39;0.15;;;0.10;;
51124;SDS011;37163;55.556;39.108;2023-08-31T00:57:08;0.17;;;0.13;;
51124;SDS011;37163;55.556;39.108;2023-08-31T00:59:35;0.10;;;0.10;;
51124;SDS011;37163;55.556;39.108;2023-08-31T01:02:15;0.25;;;0.25;;
51124;SDS011;37163;55.556;39.108;2023-08-31T01:09:58;0.22;;;0.22;;
51124;SDS011;37163;55.556;39.108;2023-08-31T01:12:36;0.20;;;0.20;;
51124;SDS011;37163;55.556;39.108;2023-08-31T01:15:13;0.30;;;0.10;;
51124;SDS011;37163;55.556;39.108;2023-08-31T01:17:48;0.73;;;0.20;;
51124;SDS011;37163;55.556;39.108;2023-08-31T01:20:22;0.10;;;0.10;;
51124;SDS011;37163;55.556;39.108;2023-08-31T01:23:15;0.28;;;0.10;;
51124;SDS011;37163;55.556;39.108;2023-08-31T01:25:42;0.30;;;0.25;;
51124;SDS011;37163;55.556;39.108;2023-08-31T01:28:09;0.17;;;0.05;;
51124;SDS011;37163;55.556;39.108;2023-08-31T01:30:36;0.10;;;0.10;;
51124;SDS011;37163;55.556;39.108;2023-08-31T01:33:03;0.00;;;0.00;;
51124;SDS011;37163;55.556;39.108;2023-08-31T01:35:42;0.10;;;0.10;;
51124;SDS011;37163;55.556;39.108;2023-08-31T01:38:10;0.10;;;0.10;;
51124;SDS011;37163;55.556;39.108;2023-08-31T01:40:43;0.00;;;0.00;;
51124;SDS011;37163;55.556;39.108;2023-08-31T01:43:14;0.10;;;0.08;;
51124;SDS011;37163;55.556;39.108;2023-08-31T01:45:40;0.03;;;0.03;;
51124;SDS011;37163;55.556;39.108;2023-08-31T01:48:10;0.00;;;0.00;;
51124;SDS011;37163;55.556;39.108;2023-08-31T01:50:37;0.10;;;0.10;;
51124;SDS011;37163;55.556;39.108;2023-08-31T01:53:03;0.00;;;0.00;;
51124;SDS011;37163;55.556;39.108;2023-08-31T01:55:32;0.00;;;0.00;;
51124;SDS011;37163;55.556;39.108;2023-08-31T01:57:59;0.00;;;0.00;;
51124;SDS011;37163;55.556;39.108;2023-08-31T02:00:28;0.00;;;0.00;;
51124;SDS011;37163;55.556;39.108;2023-08-31T02:02:55;0.00;;;0.00;;
51124;SDS011;37163;55.556;39.108;2023-08-31T02:05:22;0.13;;;0.10;;
51124;SDS011;37163;55.556;39.108;2023-08-31T02:07:48;0.00;;;0.00;;
51124;SDS011;37163;55.556;39.108;2023-08-31T02:10:15;0.00;;;0.00;;
51124;SDS011;37163;55.556;39.108;2023-08-31T02:13:02;0.00;;;0.00;;
51124;SDS011;37163;55.556;39.108;2023-08-31T02:15:29;0.20;;;0.20;;
51124;SDS011;37163;55.556;39.108;2023-08-31T02:17:58;0.00;;;0.00;;
51124;SDS011;37163;55.556;39.108;2023-08-31T02:20:25;0.10;;;0.10;;
51124;SDS011;37163;55.556;39.108;2023-08-31T02:22:52;0.10;;;0.10;;
51124;SDS011;37163;55.556;39.108;2023-08-31T02:25:18;0.15;;;0.08;;
51124;SDS011;37163;55.556;39.108;2023-08-31T02:27:45;0.17;;;0.13;;
51124;SDS011;37163;55.556;39.108;2023-08-31T02:30:12;0.20;;;0.20;;
51124;SDS011;37163;55.556;39.108;2023-08-31T02:32:38;0.22;;;0.17;;
51124;SDS011;37163;55.556;39.108;2023-08-31T02:35:04;0.20;;;0.20;;
51124;SDS011;37163;55.556;39.108;2023-08-31T02:37:32;0.17;;;0.17;;
51124;SDS011;37163;55.556;39.108;2023-08-31T02:39:59;0.30;;;0.20;;
51124;SDS011;37163;55.556;39.108;2023-08-31T02:42:25;0.10;;;0.10;;
51124;SDS011;37163;55.556;39.108;2023-08-31T02:44:52;0.17;;;0.10;;
51124;SDS011;37163;55.556;39.108;2023-08-31T02:47:19;0.20;;;0.20;;
51124;SDS011;37163;55.556;39.108;2023-08-31T02:49:49;0.15;;;0.10;;
51124;SDS011;37163;55.556;39.108;2023-08-31T02:52:17;0.20;;;0.20;;
51124;SDS011;37163;55.556;39.108;2023-08-31T02:54:43;0.20;;;0.20;;
51124;SDS011;37163;55.556;39.108;2023-08-31T02:57:10;0.20;;;0.20;;
51124;SDS011;37163;55.556;39.108;2023-08-31T02:59:36;0.20;;;0.20;;
51124;SDS011;37163;55.556;39.108;2023-08-31T03:02:03;0.28;;;0.28;;
51124;SDS011;37163;55.556;39.108;2023-08-31T03:04:29;0.20;;;0.20;;
51124;SDS011;37163;55.556;39.108;2023-08-31T03:06:56;0.10;;;0.10;;
51124;SDS011;37163;55.556;39.108;2023-08-31T03:09:22;0.47;;;0.28;;
51124;SDS011;37163;55.556;39.108;2023-08-31T03:11:49;0.10;;;0.10;;
51124;SDS011;37163;55.556;39.108;2023-08-31T03:14:15;0.20;;;0.10;;
51124;SDS011;37163;55.556;39.108;2023-08-31T03:16:42;0.10;;;0.10;;
51124;SDS011;37163;55.556;39.108;2023-08-31T03:19:09;0.00;;;0.00;;
51124;SDS011;37163;55.556;39.108;2023-08-31T03:21:36;0.08;;;0.08;;
51124;SDS011;37163;55.556;39.108;2023-08-31T03:24:02;0.00;;;0.00;;
51124;SDS011;37163;55.556;39.108;2023-08-31T03:26:49;0.03;;;0.00;;
51124;SDS011;37163;55.556;39.108;2023-08-31T03:29:15;0.03;;;0.00;;
51124;SDS011;37163;55.556;39.108;2023-08-31T03:31:41;0.00;;;0.00;;
51124;SDS011;37163;55.556;39.108;2023-08-31T03:34:08;0.00;;;0.00;;
51124;SDS011;37163;55.556;39.108;2023-08-31T03:36:34;0.00;;;0.00;;
51124;SDS011;37163;55.556;39.108;2023-08-31T03:39:02;0.00;;;0.00;;
51124;SDS011;37163;55.556;39.108;2023-08-31T03:41:29;0.00;;;0.00;;
51124;SDS011;37163;55.556;39.108;2023-08-31T03:44:14;0.20;;;0.00;;
51124;SDS011;37163;55.556;39.108;2023-08-31T03:46:42;0.00;;;0.00;;
51124;SDS011;37163;55.556;39.108;2023-08-31T03:49:08;0.00;;;0.00;;
51124;SDS011;37163;55.556;39.108;2023-08-31T03:51:35;0.00;;;0.00;;
51124;SDS011;37163;55.556;39.108;2023-08-31T03:54:02;0.30;;;0.20;;
51124;SDS011;37163;55.556;39.108;2023-08-31T03:56:29;0.10;;;0.10;;
51124;SDS011;37163;55.556;39.108;2023-08-31T03:58:55;0.32;;;0.20;;
51124;SDS011;37163;55.556;39.108;2023-08-31T04:01:22;0.05;;;0.05;;
51124;SDS011;37163;55.556;39.108;2023-08-31T04:03:50;0.00;;;0.00;;
51124;SDS011;37163;55.556;39.108;2023-08-31T04:06:16;0.10;;;0.10;;
51124;SDS011;37163;55.556;39.108;2023-08-31T04:08:42;0.15;;;0.13;;
51124;SDS011;37163;55.556;39.108;2023-08-31T04:11:09;0.20;;;0.20;;
51124;SDS011;37163;55.556;39.108;2023-08-31T04:13:35;0.03;;;0.00;;
51124;SDS011;37163;55.556;39.108;2023-08-31T04:16:02;0.13;;;0.13;;
51124;SDS011;37163;55.556;39.108;2023-08-31T04:18:29;0.00;;;0.00;;
51124;SDS011;37163;55.556;39.108;2023-08-31T04:20:55;0.17;;;0.15;;
51124;SDS011;37163;55.556;39.108;2023-08-31T04:23:24;0.20;;;0.20;;
51124;SDS011;37163;55.556;39.108;2023-08-31T04:25:51;0.30;;;0.30;;
51124;SDS011;37163;55.556;39.108;2023-08-31T04:28:19;0.25;;;0.25;;
51124;SDS011;37163;55.556;39.108;2023-08-31T04:30:45;0.17;;;0.17;;
51124;SDS011;37163;55.556;39.108;2023-08-31T04:33:12;0.20;;;0.20;;
51124;SDS011;37163;55.556;39.108;2023-08-31T04:35:38;0.20;;;0.20;;
51124;SDS011;37163;55.556;39.108;2023-08-31T04:38:05;0.10;;;0.10;;
51124;SDS011;37163;55.556;39.108;2023-08-31T04:40:31;0.10;;;0.10;;
51124;SDS011;37163;55.556;39.108;2023-08-31T04:42:57;0.30;;;0.30;;
51124;SDS011;37163;55.556;39.108;2023-08-31T04:45:24;0.22;;;0.22;;
51124;SDS011;37163;55.556;39.108;2023-08-31T04:47:50;0.30;;;0.30;;
51124;SDS011;37163;55.556;39.108;2023-08-31T04:50:17;0.52;;;0.40;;
51124;SDS011;37163;55.556;39.108;2023-08-31T04:52:43;0.20;;;0.20;;
51124;SDS011;37163;55.556;39.108;2023-08-31T04:55:12;0.40;;;0.40;;
51124;SDS011;37163;55.556;39.108;2023-08-31T04:57:39;0.38;;;0.38;;
51124;SDS011;37163;55.556;39.108;2023-08-31T05:00:06;0.13;;;0.13;;
51124;SDS011;37163;55.556;39.108;2023-08-31T05:02:35;0.40;;;0.40;;
51124;SDS011;37163;55.556;39.108;2023-08-31T05:05:02;0.20;;;0.20;;
51124;SDS011;37163;55.556;39.108;2023-08-31T05:07:29;0.28;;;0.28;;
51124;SDS011;37163;55.556;39.108;2023-08-31T05:09:56;0.40;;;0.25;;
51124;SDS011;37163;55.556;39.108;2023-08-31T05:12:22;0.20;;;0.20;;
51124;SDS011;37163;55.556;39.108;2023-08-31T05:14:48;0.20;;;0.20;;
51124;SDS011;37163;55.556;39.108;2023-08-31T05:17:14;0.30;;;0.30;;
51124;SDS011;37163;55.556;39.108;2023-08-31T05:19:41;0.30;;;0.30;;
51124;SDS011;37163;55.556;39.108;2023-08-31T05:22:07;0.30;;;0.30;;
51124;SDS011;37163;55.556;39.108;2023-08-31T05:24:34;0.55;;;0.40;;
51124;SDS011;37163;55.556;39.108;2023-08-31T05:27:00;0.50;;;0.50;;
51124;SDS011;37163;55.556;39.108;2023-08-31T05:29:26;0.32;;;0.32;;
51124;SDS011;37163;55.556;39.108;2023-08-31T05:31:53;0.32;;;0.32;;
51124;SDS011;37163;55.556;39.108;2023-08-31T05:34:24;0.70;;;0.70;;
51124;SDS011;37163;55.556;39.108;2023-08-31T05:36:51;0.55;;;0.55;;
51124;SDS011;37163;55.556;39.108;2023-08-31T05:39:17;0.60;;;0.60;;
51124;SDS011;37163;55.556;39.108;2023-08-31T05:41:44;1.33;;;0.90;;
51124;SDS011;37163;55.556;39.108;2023-08-31T05:44:10;1.23;;;0.63;;
51124;SDS011;37163;55.556;39.108;2023-08-31T05:46:37;0.65;;;0.65;;
51124;SDS011;37163;55.556;39.108;2023-08-31T05:49:05;0.60;;;0.60;;
51124;SDS011;37163;55.556;39.108;2023-08-31T05:51:32;0.65;;;0.65;;
51124;SDS011;37163;55.556;39.108;2023-08-31T05:53:58;0.63;;;0.60;;
51124;SDS011;37163;55.556;39.108;2023-08-31T05:56:25;0.75;;;0.55;;
51124;SDS011;37163;55.556;39.108;2023-08-31T05:58:52;0.57;;;0.57;;
51124;SDS011;37163;55.556;39.108;2023-08-31T06:01:21;0.35;;;0.35;;
51124;SDS011;37163;55.556;39.108;2023-08-31T06:03:50;0.55;;;0.55;;
51124;SDS011;37163;55.556;39.108;2023-08-31T06:06:16;0.32;;;0.32;;
51124;SDS011;37163;55.556;39.108;2023-08-31T06:08:42;0.47;;;0.47;;
51124;SDS011;37163;55.556;39.108;2023-08-31T06:11:09;0.60;;;0.60;;
51124;SDS011;37163;55.556;39.108;2023-08-31T06:13:35;0.50;;;0.47;;
51124;SDS011;37163;55.556;39.108;2023-08-31T06:16:03;0.30;;;0.30;;
51124;SDS011;37163;55.556;39.108;2023-08-31T06:18:29;0.50;;;0.50;;
51124;SDS011;37163;55.556;39.108;2023-08-31T06:20:55;0.73;;;0.52;;
51124;SDS011;37163;55.556;39.108;2023-08-31T06:23:24;0.68;;;0.47;;
51124;SDS011;37163;55.556;39.108;2023-08-31T06:25:50;0.30;;;0.30;;
51124;SDS011;37163;55.556;39.108;2023-08-31T06:28:17;0.40;;;0.40;;
51124;SDS011;37163;55.556;39.108;2023-08-31T06:30:43;0.65;;;0.50;;
51124;SDS011;37163;55.556;39.108;2023-08-31T06:33:13;1.00;;;0.60;;
51124;SDS011;37163;55.556;39.108;2023-08-31T06:35:40;1.08;;;0.80;;
51124;SDS011;37163;55.556;39.108;2023-08-31T06:38:07;0.80;;;0.70;;
51124;SDS011;37163;55.556;39.108;2023-08-31T06:40:33;0.57;;;0.47;;
51124;SDS011;37163;55.556;39.108;2023-08-31T06:42:59;0.60;;;0.50;;
51124;SDS011;37163;55.556;39.108;2023-08-31T06:45:28;0.63;;;0.60;;
51124;SDS011;37163;55.556;39.108;2023-08-31T06:47:55;0.50;;;0.50;;
51124;SDS011;37163;55.556;39.108;2023-08-31T06:50:21;0.68;;;0.55;;
51124;SDS011;37163;55.556;39.108;2023-08-31T06:52:47;0.60;;;0.50;;
51124;SDS011;37163;55.556;39.108;2023-08-31T06:55:14;0.80;;;0.80;;
51124;SDS011;37163;55.556;39.108;2023-08-31T06:57:41;0.88;;;0.70;;
51124;SDS011;37163;55.556;39.108;2023-08-31T07:00:08;0.65;;;0.65;;
51124;SDS011;37163;55.556;39.108;2023-08-31T07:02:40;0.60;;;0.52;;
51124;SDS011;37163;55.556;39.108;2023-08-31T07:05:07;0.40;;;0.40;;
51124;SDS011;37163;55.556;39.108;2023-08-31T07:07:35;0.60;;;0.60;;
51124;SDS011;37163;55.556;39.108;2023-08-31T07:10:02;0.68;;;0.63;;
51124;SDS011;37163;55.556;39.108;2023-08-31T07:12:29;0.68;;;0.50;;
51124;SDS011;37163;55.556;39.108;2023-08-31T07:14:56;0.70;;;0.70;;
51124;SDS011;37163;55.556;39.108;2023-08-31T07:17:22;0.70;;;0.70;;
51124;SDS011;37163;55.556;39.108;2023-08-31T07:19:48;0.60;;;0.60;;
51124;SDS011;37163;55.556;39.108;2023-08-31T07:22:15;1.33;;;0.73;;
51124;SDS011;37163;55.556;39.108;2023-08-31T07:24:41;0.68;;;0.60;;
51124;SDS011;37163;55.556;39.108;2023-08-31T07:27:08;0.68;;;0.68;;
51124;SDS011;37163;55.556;39.108;2023-08-31T07:29:34;0.80;;;0.70;;
51124;SDS011;37163;55.556;39.108;2023-08-31T07:32:00;0.35;;;0.35;;
51124;SDS011;37163;55.556;39.108;2023-08-31T07:34:28;0.73;;;0.60;;
51124;SDS011;37163;55.556;39.108;2023-08-31T07:36:56;0.77;;;0.68;;
51124;SDS011;37163;55.556;39.108;2023-08-31T07:39:24;1.10;;;0.77;;
51124;SDS011;37163;55.556;39.108;2023-08-31T07:41:52;0.68;;;0.68;;
51124;SDS011;37163;55.556;39.108;2023-08-31T07:44:20;0.77;;;0.68;;
51124;SDS011;37163;55.556;39.108;2023-08-31T07:46:47;0.65;;;0.65;;
51124;SDS011;37163;55.556;39.108;2023-08-31T07:49:13;0.57;;;0.47;;
51124;SDS011;37163;55.556;39.108;2023-08-31T07:51:40;0.77;;;0.70;;
51124;SDS011;37163;55.556;39.108;2023-08-31T07:54:06;0.77;;;0.77;;
51124;SDS011;37163;55.556;39.108;2023-08-31T07:56:33;0.70;;;0.70;;
51124;SDS011;37163;55.556;39.108;2023-08-31T07:58:59;0.45;;;0.40;;
51124;SDS011;37163;55.556;39.108;2023-08-31T08:01:25;0.32;;;0.32;;
51124;SDS011;37163;55.556;39.108;2023-08-31T08:03:52;0.45;;;0.45;;
51124;SDS011;37163;55.556;39.108;2023-08-31T08:06:19;0.40;;;0.40;;
51124;SDS011;37163;55.556;39.108;2023-08-31T08:08:45;0.60;;;0.40;;
51124;SDS011;37163;55.556;39.108;2023-08-31T08:11:12;0.38;;;0.20;;
51124;SDS011;37163;55.556;39.108;2023-08-31T08:13:38;0.40;;;0.40;;
51124;SDS011;37163;55.556;39.108;2023-08-31T08:16:05;0.45;;;0.28;;
51124;SDS011;37163;55.556;39.108;2023-08-31T08:18:31;0.52;;;0.52;;
51124;SDS011;37163;55.556;39.108;2023-08-31T08:20:58;0.63;;;0.63;;
51124;SDS011;37163;55.556;39.108;2023-08-31T08:23:24;0.95;;;0.73;;
51124;SDS011;37163;55.556;39.108;2023-08-31T08:25:51;0.70;;;0.70;;
51124;SDS011;37163;55.556;39.108;2023-08-31T08:28:17;0.73;;;0.73;;
51124;SDS011;37163;55.556;39.108;2023-08-31T08:30:45;1.02;;;0.77;;
51124;SDS011;37163;55.556;39.108;2023-08-31T08:33:11;1.00;;;0.90;;
51124;SDS011;37163;55.556;39.108;2023-08-31T08:35:38;0.85;;;0.70;;
51124;SDS011;37163;55.556;39.108;2023-08-31T08:38:05;0.70;;;0.70;;
51124;SDS011;37163;55.556;39.108;2023-08-31T08:40:32;0.88;;;0.80;;
51124;SDS011;37163;55.556;39.108;2023-08-31T08:43:00;0.80;;;0.80;;
51124;SDS011;37163;55.556;39.108;2023-08-31T08:45:30;0.80;;;0.80;;
51124;SDS011;37163;55.556;39.108;2023-08-31T08:48:02;0.57;;;0.57;;
51124;SDS011;37163;55.556;39.108;2023-08-31T08:50:33;1.02;;;0.82;;
51124;SDS011;37163;55.556;39.108;2023-08-31T08:53:01;0.80;;;0.80;;
51124;SDS011;37163;55.556;39.108;2023-08-31T08:55:29;0.65;;;0.65;;
51124;SDS011;37163;55.556;39.108;2023-08-31T08:57:55;0.80;;;0.80;;
51124;SDS011;37163;55.556;39.108;2023-08-31T09:00:24;0.85;;;0.70;;
51124;SDS011;37163;55.556;39.108;2023-08-31T09:02:52;0.60;;;0.60;;
51124;SDS011;37163;55.556;39.108;2023-08-31T09:05:18;1.58;;;1.30;;
51124;SDS011;37163;55.556;39.108;2023-08-31T09:10:55;1.15;;;1.05;;
51124;SDS011;37163;55.556;39.108;2023-08-31T09:13:29;0.80;;;0.80;;
51124;SDS011;37163;55.556;39.108;2023-08-31T09:15:56;0.70;;;0.63;;
51124;SDS011;37163;55.556;39.108;2023-08-31T09:18:26;0.50;;;0.50;;
51124;SDS011;37163;55.556;39.108;2023-08-31T09:20:54;0.52;;;0.50;;
51124;SDS011;37163;55.556;39.108;2023-08-31T09:23:24;0.50;;;0.50;;
51124;SDS011;37163;55.556;39.108;2023-08-31T09:25:52;1.17;;;0.70;;
51124;SDS011;37163;55.556;39.108;2023-08-31T09:28:20;1.13;;;0.68;;
51124;SDS011;37163;55.556;39.108;2023-08-31T09:30:48;0.75;;;0.75;;
51124;SDS011;37163;55.556;39.108;2023-08-31T09:33:16;1.05;;;0.80;;
51124;SDS011;37163;55.556;39.108;2023-08-31T09:35:51;0.73;;;0.70;;
51124;SDS011;37163;55.556;39.108;2023-08-31T09:38:18;0.68;;;0.60;;
51124;SDS011;37163;55.556;39.108;2023-08-31T09:40:45;0.57;;;0.55;;
51124;SDS011;37163;55.556;39.108;2023-08-31T09:43:18;0.82;;;0.82;;
51124;SDS011;37163;55.556;39.108;2023-08-31T09:45:49;0.70;;;0.70;;
51124;SDS011;37163;55.556;39.108;2023-08-31T09:48:16;0.28;;;0.28;;
51124;SDS011;37163;55.556;39.108;2023-08-31T09:50:43;0.32;;;0.32;;
51124;SDS011;37163;55.556;39.108;2023-08-31T09:53:15;0.90;;;0.80;;
51124;SDS011;37163;55.556;39.108;2023-08-31T09:55:43;0.60;;;0.50;;
51124;SDS011;37163;55.556;39.108;2023-08-31T09:58:10;0.50;;;0.50;;
51124;SDS011;37163;55.556;39.108;2023-08-31T10:00:37;0.38;;;0.38;;
51124;SDS011;37163;55.556;39.108;2023-08-31T10:03:04;0.80;;;0.60;;
51124;SDS011;37163;55.556;39.108;2023-08-31T10:05:31;0.38;;;0.38;;
51124;SDS011;37163;55.556;39.108;2023-08-31T10:08:01;0.85;;;0.60;;
51124;SDS011;37163;55.556;39.108;2023-08-31T10:10:28;0.63;;;0.63;;
51124;SDS011;37163;55.556;39.108;2023-08-31T10:12:56;0.60;;;0.60;;
51124;SDS011;37163;55.556;39.108;2023-08-31T10:15:24;0.80;;;0.73;;
51124;SDS011;37163;55.556;39.108;2023-08-31T10:17:55;0.63;;;0.63;;
51124;SDS011;37163;55.556;39.108;2023-08-31T10:20:21;0.50;;;0.50;;
51124;SDS011;37163;55.556;39.108;2023-08-31T10:22:47;0.50;;;0.50;;
51124;SDS011;37163;55.556;39.108;2023-08-31T10:25:14;0.30;;;0.30;;
51124;SDS011;37163;55.556;39.108;2023-08-31T10:27:42;0.40;;;0.40;;
51124;SDS011;37163;55.556;39.108;2023-08-31T10:30:15;0.30;;;0.30;;
51124;SDS011;37163;55.556;39.108;2023-08-31T10:38:28;0.85;;;0.85;;
51124;SDS011;37163;55.556;39.108;2023-08-31T10:40:59;0.60;;;0.55;;
51124;SDS011;37163;55.556;39.108;2023-08-31T10:43:46;0.65;;;0.57;;
51124;SDS011;37163;55.556;39.108;2023-08-31T10:46:33;0.63;;;0.50;;
51124;SDS011;37163;55.556;39.108;2023-08-31T10:51:45;0.73;;;0.70;;
51124;SDS011;37163;55.556;39.108;2023-08-31T10:54:20;0.63;;;0.50;;
51124;SDS011;37163;55.556;39.108;2023-08-31T10:59:24;0.32;;;0.32;;
51124;SDS011;37163;55.556;39.108;2023-08-31T11:01:58;0.20;;;0.20;;
51124;SDS011;37163;55.556;39.108;2023-08-31T11:04:29;0.32;;;0.32;;
51124;SDS011;37163;55.556;39.108;2023-08-31T11:07:15;1.08;;;0.98;;
51124;SDS011;37163;55.556;39.108;2023-08-31T11:09:43;0.52;;;0.50;;
51124;SDS011;37163;55.556;39.108;2023-08-31T11:12:10;0.50;;;0.47;;
51124;SDS011;37163;55.556;39.108;2023-08-31T11:14:38;0.40;;;0.40;;
51124;SDS011;37163;55.556;39.108;2023-08-31T11:17:05;0.50;;;0.50;;
51124;SDS011;37163;55.556;39.108;2023-08-31T11:19:32;0.52;;;0.52;;
51124;SDS011;37163;55.556;39.108;2023-08-31T11:22:02;0.20;;;0.20;;
51124;SDS011;37163;55.556;39.108;2023-08-31T11:24:32;0.30;;;0.30;;
51124;SDS011;37163;55.556;39.108;2023-08-31T11:26:59;0.28;;;0.28;;
51124;SDS011;37163;55.556;39.108;2023-08-31T11:29:29;0.30;;;0.30;;
51124;SDS011;37163;55.556;39.108;2023-08-31T11:31:56;0.40;;;0.40;;
51124;SDS011;37163;55.556;39.108;2023-08-31T11:34:26;0.30;;;0.30;;
51124;SDS011;37163;55.556;39.108;2023-08-31T11:36:52;0.30;;;0.30;;
51124;SDS011;37163;55.556;39.108;2023-08-31T11:39:19;0.40;;;0.30;;
51124;SDS011;37163;55.556;39.108;2023-08-31T11:41:45;0.20;;;0.20;;
51124;SDS011;37163;55.556;39.108;2023-08-31T11:44:12;0.20;;;0.20;;
51124;SDS011;37163;55.556;39.108;2023-08-31T11:46:42;0.20;;;0.20;;
51124;SDS011;37163;55.556;39.108;2023-08-31T11:49:10;0.30;;;0.30;;
51124;SDS011;37163;55.556;39.108;2023-08-31T11:51:37;0.28;;;0.28;;
51124;SDS011;37163;55.556;39.108;2023-08-31T11:54:05;0.17;;;0.17;;
51124;SDS011;37163;55.556;39.108;2023-08-31T11:56:39;0.82;;;0.60;;
51124;SDS011;37163;55.556;39.108;2023-08-31T11:59:09;0.52;;;0.52;;
51124;SDS011;37163;55.556;39.108;2023-08-31T12:01:39;0.75;;;0.60;;
51124;SDS011;37163;55.556;39.108;2023-08-31T12:04:10;0.80;;;0.50;;
51124;SDS011;37163;55.556;39.108;2023-08-31T12:06:40;0.50;;;0.30;;
51124;SDS011;37163;55.556;39.108;2023-08-31T12:09:07;0.98;;;0.60;;
51124;SDS011;37163;55.556;39.108;2023-08-31T12:11:34;0.45;;;0.30;;
51124;SDS011;37163;55.556;39.108;2023-08-31T12:14:17;0.38;;;0.38;;
51124;SDS011;37163;55.556;39.108;2023-08-31T12:16:45;0.40;;;0.40;;
51124;SDS011;37163;55.556;39.108;2023-08-31T12:19:11;0.47;;;0.47;;
51124;SDS011;37163;55.556;39.108;2023-08-31T12:21:38;0.40;;;0.38;;
51124;SDS011;37163;55.556;39.108;2023-08-31T12:24:06;0.30;;;0.30;;
51124;SDS011;37163;55.556;39.108;2023-08-31T12:26:34;0.52;;;0.52;;
51124;SDS011;37163;55.556;39.108;2023-08-31T12:29:01;0.30;;;0.30;;
51124;SDS011;37163;55.556;39.108;2023-08-31T12:31:30;0.20;;;0.20;;
51124;SDS011;37163;55.556;39.108;2023-08-31T12:33:58;0.10;;;0.10;;
51124;SDS011;37163;55.556;39.108;2023-08-31T12:36:25;0.15;;;0.15;;
51124;SDS011;37163;55.556;39.108;2023-08-31T12:38:51;0.38;;;0.38;;
51124;SDS011;37163;55.556;39.108;2023-08-31T12:41:18;0.20;;;0.20;;
51124;SDS011;37163;55.556;39.108;2023-08-31T12:43:45;0.10;;;0.10;;
51124;SDS011;37163;55.556;39.108;2023-08-31T12:46:12;0.28;;;0.28;;
51124;SDS011;37163;55.556;39.108;2023-08-31T12:48:39;0.30;;;0.30;;
51124;SDS011;37163;55.556;39.108;2023-08-31T12:51:06;0.30;;;0.30;;
51124;SDS011;37163;55.556;39.108;2023-08-31T12:53:36;0.10;;;0.10;;
51124;SDS011;37163;55.556;39.108;2023-08-31T12:56:04;0.25;;;0.25;;
51124;SDS011;37163;55.556;39.108;2023-08-31T12:58:31;0.10;;;0.10;;
51124;SDS011;37163;55.556;39.108;2023-08-31T13:00:58;0.10;;;0.10;;
51124;SDS011;37163;55.556;39.108;2023-08-31T13:03:25;0.10;;;0.10;;
51124;SDS011;37163;55.556;39.108;2023-08-31T13:05:52;0.30;;;0.30;;
51124;SDS011;37163;55.556;39.108;2023-08-31T13:08:18;0.10;;;0.10;;
51124;SDS011;37163;55.556;39.108;2023-08-31T13:10:54;0.30;;;0.30;;
51124;SDS011;37163;55.556;39.108;2023-08-31T13:13:21;0.30;;;0.30;;
51124;SDS011;37163;55.556;39.108;2023-08-31T13:15:48;0.20;;;0.20;;
51124;SDS011;37163;55.556;39.108;2023-08-31T13:18:14;0.20;;;0.20;;
51124;SDS011;37163;55.556;39.108;2023-08-31T13:20:48;0.20;;;0.20;;
51124;SDS011;37163;55.556;39.108;2023-08-31T13:23:21;0.20;;;0.20;;
51124;SDS011;37163;55.556;39.108;2023-08-31T13:25:48;0.10;;;0.10;;
51124;SDS011;37163;55.556;39.108;2023-08-31T13:28:15;0.10;;;0.10;;
51124;SDS011;37163;55.556;39.108;2023-08-31T13:30:42;0.30;;;0.30;;
51124;SDS011;37163;55.556;39.108;2023-08-31T13:33:08;0.50;;;0.38;;
51124;SDS011;37163;55.556;39.108;2023-08-31T13:35:35;0.20;;;0.20;;
51124;SDS011;37163;55.556;39.108;2023-08-31T13:38:02;0.20;;;0.20;;
51124;SDS011;37163;55.556;39.108;2023-08-31T13:40:30;0.13;;;0.08;;
51124;SDS011;37163;55.556;39.108;2023-08-31T13:43:01;0.40;;;0.40;;
51124;SDS011;37163;55.556;39.108;2023-08-31T13:45:29;0.30;;;0.30;;
51124;SDS011;37163;55.556;39.108;2023-08-31T13:47:57;0.47;;;0.32;;
51124;SDS011;37163;55.556;39.108;2023-08-31T13:50:27;0.32;;;0.28;;
51124;SDS011;37163;55.556;39.108;2023-08-31T13:52:54;0.05;;;0.05;;
51124;SDS011;37163;55.556;39.108;2023-08-31T13:55:21;0.10;;;0.10;;
51124;SDS011;37163;55.556;39.108;2023-08-31T13:57:49;0.10;;;0.10;;
51124;SDS011;37163;55.556;39.108;2023-08-31T14:00:16;0.20;;;0.20;;
51124;SDS011;37163;55.556;39.108;2023-08-31T14:02:43;0.10;;;0.00;;
51124;SDS011;37163;55.556;39.108;2023-08-31T14:05:10;0.25;;;0.20;;
51124;SDS011;37163;55.556;39.108;2023-08-31T14:07:37;0.20;;;0.20;;
51124;SDS011;37163;55.556;39.108;2023-08-31T14:10:03;0.17;;;0.17;;
51124;SDS011;37163;55.556;39.108;2023-08-31T14:12:52;0.10;;;0.10;;
51124;SDS011;37163;55.556;39.108;2023-08-31T14:15:19;0.00;;;0.00;;
51124;SDS011;37163;55.556;39.108;2023-08-31T14:17:45;0.00;;;0.00;;
51124;SDS011;37163;55.556;39.108;2023-08-31T14:20:12;0.08;;;0.08;;
51124;SDS011;37163;55.556;39.108;2023-08-31T14:22:38;0.28;;;0.28;;
51124;SDS011;37163;55.556;39.108;2023-08-31T14:25:09;0.10;;;0.10;;
51124;SDS011;37163;55.556;39.108;2023-08-31T14:27:36;0.32;;;0.32;;
51124;SDS011;37163;55.556;39.108;2023-08-31T14:30:04;0.45;;;0.20;;
51124;SDS011;37163;55.556;39.108;2023-08-31T14:32:31;0.20;;;0.20;;
51124;SDS011;37163;55.556;39.108;2023-08-31T14:34:58;0.15;;;0.15;;
51124;SDS011;37163;55.556;39.108;2023-08-31T14:37:24;0.10;;;0.10;;
51124;SDS011;37163;55.556;39.108;2023-08-31T14:39:50;0.10;;;0.10;;
51124;SDS011;37163;55.556;39.108;2023-08-31T14:42:17;0.20;;;0.20;;
51124;SDS011;37163;55.556;39.108;2023-08-31T14:44:46;0.28;;;0.28;;
51124;SDS011;37163;55.556;39.108;2023-08-31T14:47:14;0.20;;;0.17;;
51124;SDS011;37163;55.556;39.108;2023-08-31T14:49:41;0.10;;;0.10;;
51124;SDS011;37163;55.556;39.108;2023-08-31T14:52:07;0.90;;;0.60;;
51124;SDS011;37163;55.556;39.108;2023-08-31T14:54:34;0.77;;;0.68;;
51124;SDS011;37163;55.556;39.108;2023-08-31T14:57:00;0.52;;;0.52;;